Time;durP1;ratioP1;P1;durP2;ratioP2;P2;SDS_P1;SDS_P2;PMS_P1;PMS_P2;Temp;Humidity;BMP_temperature;BMP_pressure;BME280_temperature;BME280_humidity;BME280_pressure;Samples;Min_cycle;Max_cycle;Signal;HPM_P1;HPM_P2
2023/04/24 00:01:33;;;;;;;9.87;8.97;;;11.70;99.90;;;;;;4843773;29;20508;-94
2023/04/24 00:04:03;;;;;;;10.68;9.68;;;11.40;99.90;;;;;;4845071;29;20437;-96
2023/04/24 00:06:36;;;;;;;11.23;10.23;;;11.50;99.90;;;;;;4841636;29;20532;-93
2023/04/24 00:09:03;;;;;;;10.52;9.52;;;11.50;99.90;;;;;;4845568;29;20432;-94
2023/04/24 00:11:29;;;;;;;9.80;8.90;;;11.50;99.90;;;;;;4842405;29;20465;-92
2023/04/24 00:13:56;;;;;;;8.77;7.97;;;11.80;99.90;;;;;;4859528;29;20413;-92
2023/04/24 00:16:22;;;;;;;7.60;7.00;;;11.50;99.90;;;;;;4845744;29;20874;-93
2023/04/24 00:18:48;;;;;;;8.20;7.50;;;11.80;99.90;;;;;;4858592;29;20428;-92
2023/04/24 00:21:15;;;;;;;7.80;7.20;;;11.80;99.90;;;;;;4845230;29;20421;-93
2023/04/24 00:23:41;;;;;;;7.78;7.07;;;11.60;99.90;;;;;;4843166;29;20476;-94
2023/04/24 00:26:07;;;;;;;6.93;6.30;;;12.00;99.90;;;;;;4845260;29;20445;-93
2023/04/24 00:28:33;;;;;;;7.60;6.90;;;11.70;99.90;;;;;;4843845;29;20420;-94
2023/04/24 00:30:59;;;;;;;7.60;7.00;;;11.60;99.90;;;;;;4844823;29;20436;-94
2023/04/24 00:33:24;;;;;;;8.50;7.70;;;11.70;99.90;;;;;;4843811;29;20421;-92
2023/04/24 00:35:50;;;;;;;8.87;8.07;;;11.60;99.90;;;;;;4844796;29;20775;-93
2023/04/24 00:38:16;;;;;;;8.90;8.10;;;11.50;99.90;;;;;;4846830;29;20440;-93
2023/04/24 00:40:41;;;;;;;9.10;8.30;;;11.60;99.90;;;;;;4842218;29;20432;-94
2023/04/24 00:43:07;;;;;;;9.97;9.07;;;11.50;99.90;;;;;;4844208;29;20424;-94
2023/04/24 00:45:33;;;;;;;8.90;8.10;;;11.70;99.90;;;;;;4842733;29;20445;-94
2023/04/24 00:48:00;;;;;;;10.13;9.15;;;11.20;99.90;;;;;;4846567;29;20439;-93
2023/04/24 00:50:26;;;;;;;10.73;9.70;;;11.90;99.90;;;;;;4857145;29;20498;-95
2023/04/24 00:52:52;;;;;;;9.70;8.80;;;11.40;99.90;;;;;;4847048;29;20521;-93
2023/04/24 00:55:18;;;;;;;10.18;9.18;;;11.20;99.90;;;;;;4848932;29;20474;-93
2023/04/24 00:57:45;;;;;;;10.63;9.63;;;11.30;99.90;;;;;;4846488;29;21229;-94
2023/04/24 01:00:11;;;;;;;9.70;8.88;;;10.90;99.90;;;;;;4846803;29;20416;-92
2023/04/24 01:02:46;;;;;;;9.23;8.43;;;11.30;99.90;;;;;;4843091;29;20425;-93
2023/04/24 01:05:14;;;;;;;9.83;8.93;;;11.60;99.90;;;;;;4848725;29;20448;-92
2023/04/24 01:07:45;;;;;;;9.10;8.20;;;11.20;99.90;;;;;;4843892;29;20483;-92
2023/04/24 01:10:12;;;;;;;8.02;7.40;;;11.50;99.90;;;;;;4845521;29;20424;-92
2023/04/24 01:12:38;;;;;;;7.18;6.47;;;11.20;99.90;;;;;;4843424;29;20748;-92
2023/04/24 01:15:06;;;;;;;7.63;6.93;;;11.30;99.90;;;;;;4858124;29;20540;-92
2023/04/24 01:17:32;;;;;;;7.55;6.85;;;11.10;99.90;;;;;;4844580;29;20417;-92
2023/04/24 01:19:59;;;;;;;7.60;6.90;;;11.30;99.90;;;;;;4858902;29;20425;-93
2023/04/24 01:22:26;;;;;;;6.82;6.15;;;11.10;99.90;;;;;;4845276;29;20440;-93
2023/04/24 01:24:53;;;;;;;7.22;6.53;;;11.10;99.90;;;;;;4860730;29;20441;-93
2023/04/24 01:27:19;;;;;;;7.57;6.88;;;11.00;99.90;;;;;;4847903;29;20511;-93
2023/04/24 01:29:45;;;;;;;7.47;6.78;;;11.10;99.90;;;;;;4862239;29;20748;-94
2023/04/24 01:32:11;;;;;;;7.50;6.90;;;11.10;99.90;;;;;;4850183;29;20492;-92
2023/04/24 01:34:38;;;;;;;8.57;7.30;;;11.00;99.90;;;;;;4850460;29;20433;-93
2023/04/24 01:37:05;;;;;;;8.10;7.40;;;11.10;99.90;;;;;;4863503;29;21009;-94
2023/04/24 01:39:31;;;;;;;7.85;7.15;;;11.40;99.90;;;;;;4845720;29;20413;-93
2023/04/24 01:41:56;;;;;;;8.10;7.30;;;11.10;99.90;;;;;;4846891;29;20424;-92
2023/04/24 01:44:23;;;;;;;7.80;7.10;;;10.90;99.90;;;;;;4845452;29;20997;-92
2023/04/24 01:46:49;;;;;;;8.27;7.57;;;11.20;99.90;;;;;;4859008;29;20966;-93
2023/04/24 01:49:15;;;;;;;9.27;8.40;;;11.20;99.90;;;;;;4847119;29;20408;-93
2023/04/24 01:51:41;;;;;;;8.10;7.30;;;11.20;99.90;;;;;;4842836;29;20524;-94
2023/04/24 01:54:06;;;;;;;9.02;8.23;;;11.10;99.90;;;;;;4843434;29;20544;-93
2023/04/24 01:56:35;;;;;;;7.53;6.90;;;11.30;99.90;;;;;;4843392;29;20859;-92
2023/04/24 01:59:04;;;;;;;8.82;8.02;;;11.00;99.90;;;;;;4842386;29;22328;-92
2023/04/24 02:01:35;;;;;;;8.50;7.70;;;11.00;99.90;;;;;;4844835;29;20425;-92
2023/04/24 02:04:01;;;;;;;8.75;7.85;;;11.20;99.90;;;;;;4843491;29;20409;-91
2023/04/24 02:06:27;;;;;;;8.07;7.38;;;11.00;99.90;;;;;;4844868;29;20425;-91
2023/04/24 02:08:53;;;;;;;8.10;7.37;;;11.10;99.90;;;;;;4842949;29;20504;-92
2023/04/24 02:11:19;;;;;;;8.67;7.80;;;11.20;99.90;;;;;;4841804;29;20512;-93
2023/04/24 02:13:44;;;;;;;8.07;7.40;;;11.10;99.90;;;;;;4841055;29;21010;-93
2023/04/24 02:16:10;;;;;;;8.13;7.43;;;11.10;99.90;;;;;;4840378;29;20398;-92
2023/04/24 02:18:36;;;;;;;7.55;6.93;;;10.90;99.90;;;;;;4841783;29;20431;-93
2023/04/24 02:21:03;;;;;;;8.70;7.90;;;10.90;99.90;;;;;;4841063;29;20425;-92
2023/04/24 02:23:28;;;;;;;8.73;7.95;;;11.00;99.90;;;;;;4842756;29;20420;-93
2023/04/24 02:25:55;;;;;;;8.88;8.07;;;11.10;99.90;;;;;;4840286;29;21054;-92
2023/04/24 02:28:21;;;;;;;8.18;7.47;;;11.00;99.90;;;;;;4844595;29;20506;-92
2023/04/24 02:30:46;;;;;;;10.73;9.65;;;11.10;99.90;;;;;;4844923;29;20895;-94
2023/04/24 02:33:12;;;;;;;9.75;8.85;;;10.90;99.90;;;;;;4844560;29;20499;-93
2023/04/24 02:35:38;;;;;;;9.60;8.77;;;11.10;99.90;;;;;;4845488;29;20429;-93
2023/04/24 02:38:03;;;;;;;9.38;8.57;;;11.20;99.90;;;;;;4845172;29;20421;-92
2023/04/24 02:40:29;;;;;;;10.45;9.45;;;10.90;99.90;;;;;;4846736;29;20874;-93
2023/04/24 02:42:55;;;;;;;11.13;10.02;;;11.00;99.90;;;;;;4846006;29;20417;-93
2023/04/24 02:45:21;;;;;;;11.60;10.47;;;10.80;99.90;;;;;;4847606;29;20456;-92
2023/04/24 02:47:47;;;;;;;12.80;11.50;;;11.10;99.90;;;;;;4844674;29;20424;-93
2023/04/24 02:50:12;;;;;;;12.52;11.32;;;10.90;99.90;;;;;;4845412;29;20456;-92
2023/04/24 02:52:41;;;;;;;13.50;12.20;;;11.00;99.90;;;;;;4860988;29;20512;-92
2023/04/24 02:55:07;;;;;;;13.13;11.80;;;11.10;99.90;;;;;;4845800;29;20448;-93
2023/04/24 02:57:34;;;;;;;13.93;12.52;;;10.90;99.90;;;;;;4846291;29;20428;-92
2023/04/24 03:00:00;;;;;;;13.00;11.80;;;11.20;99.90;;;;;;4845956;29;20836;-92
2023/04/24 03:02:25;;;;;;;13.40;12.20;;;11.00;99.90;;;;;;4848852;29;20424;-95
2023/04/24 03:04:51;;;;;;;13.73;12.43;;;11.30;99.90;;;;;;4848286;29;20933;-95
2023/04/24 03:07:20;;;;;;;14.37;13.00;;;11.10;99.90;;;;;;4848980;29;20425;-95
2023/04/24 03:09:47;;;;;;;14.30;12.90;;;11.00;99.90;;;;;;4846228;29;20456;-93
2023/04/24 03:12:13;;;;;;;14.77;13.38;;;11.30;99.90;;;;;;4849593;29;20892;-95
2023/04/24 03:14:38;;;;;;;16.65;14.85;;;11.10;99.90;;;;;;4848975;29;21060;-95
2023/04/24 03:17:04;;;;;;;19.47;16.57;;;11.20;99.90;;;;;;4848796;29;20429;-96
2023/04/24 03:19:30;;;;;;;16.80;15.20;;;11.10;99.90;;;;;;4846163;29;20420;-95
2023/04/24 03:21:55;;;;;;;17.77;15.88;;;11.20;99.90;;;;;;4845871;29;20417;-95
2023/04/24 03:24:22;;;;;;;16.97;15.27;;;11.20;99.90;;;;;;4846178;29;20433;-95
2023/04/24 03:26:48;;;;;;;16.42;14.90;;;11.20;99.90;;;;;;4844026;29;20474;-95
2023/04/24 03:29:13;;;;;;;17.90;16.10;;;11.00;99.90;;;;;;4844840;29;20420;-95
2023/04/24 03:31:39;;;;;;;17.43;15.67;;;11.10;99.90;;;;;;4844051;29;20499;-94
2023/04/24 03:34:04;;;;;;;17.13;15.52;;;11.20;99.90;;;;;;4843599;29;20427;-95
2023/04/24 03:36:30;;;;;;;17.43;15.73;;;11.00;99.90;;;;;;4845822;29;20504;-95
2023/04/24 03:38:56;;;;;;;20.60;17.10;;;11.00;99.90;;;;;;4843928;29;20425;-95
2023/04/24 03:41:22;;;;;;;19.73;16.50;;;11.00;99.90;;;;;;4845231;29;20976;-95
2023/04/24 03:43:48;;;;;;;16.55;14.48;;;11.20;99.90;;;;;;4843807;29;20416;-96
2023/04/24 03:46:14;;;;;;;13.60;11.65;;;11.10;99.90;;;;;;4843709;29;20467;-93
2023/04/24 03:48:40;;;;;;;14.20;11.50;;;10.90;99.90;;;;;;4843542;29;20412;-92
2023/04/24 03:51:06;;;;;;;13.25;10.70;;;10.80;99.90;;;;;;4846332;29;20985;-92
2023/04/24 03:53:31;;;;;;;11.23;9.40;;;10.90;99.90;;;;;;4844799;29;20416;-92
2023/04/24 03:55:57;;;;;;;13.02;9.80;;;10.60;99.90;;;;;;4850370;29;20420;-93
2023/04/24 03:58:23;;;;;;;10.23;8.87;;;10.60;99.90;;;;;;4847977;29;20552;-94
2023/04/24 04:00:49;;;;;;;8.97;6.83;;;10.60;99.90;;;;;;4845475;29;20428;-94
2023/04/24 04:03:15;;;;;;;9.52;7.57;;;10.50;99.90;;;;;;4847597;29;20444;-92
2023/04/24 04:05:41;;;;;;;8.97;6.60;;;10.60;99.90;;;;;;4845749;29;20508;-91
2023/04/24 04:08:06;;;;;;;6.35;5.75;;;10.40;99.90;;;;;;4844704;29;20445;-93
2023/04/24 04:10:32;;;;;;;6.55;5.70;;;10.60;99.90;;;;;;4842966;29;20432;-94
2023/04/24 04:12:58;;;;;;;5.03;3.97;;;10.40;99.90;;;;;;4842766;29;20436;-92
2023/04/24 04:15:24;;;;;;;5.83;4.80;;;10.50;99.90;;;;;;4843328;29;20546;-93
2023/04/24 04:17:49;;;;;;;3.90;2.80;;;10.20;99.90;;;;;;4843175;29;20479;-94
2023/04/24 04:20:15;;;;;;;4.40;3.70;;;10.40;99.90;;;;;;4842815;29;20433;-92
2023/04/24 04:22:41;;;;;;;3.30;3.00;;;10.40;99.90;;;;;;4841455;29;20449;-94
2023/04/24 04:25:08;;;;;;;2.83;2.17;;;10.60;99.90;;;;;;4842776;29;20447;-92
2023/04/24 04:27:35;;;;;;;4.20;3.40;;;10.30;99.90;;;;;;4841640;29;20421;-92
2023/04/24 04:30:07;;;;;;;4.57;4.07;;;10.50;99.90;;;;;;4842147;29;20413;-94
2023/04/24 04:32:33;;;;;;;5.80;5.13;;;10.30;99.90;;;;;;4842329;29;20423;-92
2023/04/24 04:35:02;;;;;;;6.07;5.47;;;10.30;99.90;;;;;;4841215;29;20914;-92
2023/04/24 04:37:38;;;;;;;8.25;6.70;;;10.40;99.90;;;;;;4843271;29;20432;-91
2023/04/24 04:40:06;;;;;;;6.75;5.85;;;10.20;99.90;;;;;;4840170;29;20425;-91
2023/04/24 04:42:33;;;;;;;6.20;5.00;;;10.30;99.90;;;;;;4842186;29;20420;-93
2023/04/24 04:45:00;;;;;;;4.03;2.97;;;10.30;99.90;;;;;;4840647;29;20448;-90
2023/04/24 04:47:26;;;;;;;4.63;3.80;;;10.40;99.90;;;;;;4841255;29;20421;-91
2023/04/24 04:49:52;;;;;;;8.60;4.70;;;10.30;99.90;;;;;;4841231;29;20424;-91
2023/04/24 04:52:18;;;;;;;7.30;4.23;;;10.50;99.90;;;;;;4840839;29;20607;-92
2023/04/24 04:54:44;;;;;;;5.50;4.30;;;9.90;99.90;;;;;;4841921;29;20425;-93
2023/04/24 04:57:10;;;;;;;5.80;4.27;;;9.90;99.90;;;;;;4840153;29;20467;-91
2023/04/24 04:59:37;;;;;;;7.72;4.63;;;10.30;99.90;;;;;;4842002;29;20425;-92
2023/04/24 05:02:02;;;;;;;5.47;4.40;;;10.40;99.90;;;;;;4840433;29;20435;-92
2023/04/24 05:04:28;;;;;;;5.83;3.60;;;10.10;99.90;;;;;;4841636;29;20440;-92
2023/04/24 05:06:54;;;;;;;5.88;4.30;;;10.20;99.90;;;;;;4841332;29;20425;-93
2023/04/24 05:09:19;;;;;;;6.22;4.30;;;10.30;99.90;;;;;;4840220;29;20476;-93
2023/04/24 05:11:45;;;;;;;6.00;5.20;;;10.20;99.90;;;;;;4841480;29;20421;-93
2023/04/24 05:14:12;;;;;;;7.15;4.88;;;9.90;99.90;;;;;;4853241;29;20428;-93
2023/04/24 05:16:38;;;;;;;7.32;5.32;;;10.20;99.90;;;;;;4835517;29;20418;-93
2023/04/24 05:19:05;;;;;;;7.82;6.43;;;10.00;99.90;;;;;;4826134;29;20419;-93
2023/04/24 05:21:31;;;;;;;7.70;6.20;;;10.00;99.90;;;;;;4823743;29;20808;-93
2023/04/24 05:23:56;;;;;;;7.90;6.70;;;9.90;99.90;;;;;;4821565;29;20536;-92
2023/04/24 05:26:22;;;;;;;8.05;7.22;;;10.00;99.90;;;;;;4824457;29;20439;-93
2023/04/24 05:28:48;;;;;;;9.02;8.00;;;9.90;99.90;;;;;;4846968;29;20427;-93
2023/04/24 05:31:14;;;;;;;9.95;8.48;;;10.10;99.90;;;;;;4855026;29;20431;-90
2023/04/24 05:33:40;;;;;;;9.35;8.35;;;9.90;99.90;;;;;;4856528;29;20417;-91
2023/04/24 05:36:06;;;;;;;12.00;9.50;;;9.90;99.90;;;;;;4854501;29;20424;-91
2023/04/24 05:38:32;;;;;;;11.25;9.13;;;9.90;99.90;;;;;;4856441;29;20909;-93
2023/04/24 05:40:58;;;;;;;9.70;8.70;;;10.00;99.90;;;;;;4854887;29;20689;-91
2023/04/24 05:43:23;;;;;;;13.57;10.27;;;10.00;99.90;;;;;;4856365;29;20922;-91
2023/04/24 05:45:49;;;;;;;10.93;9.75;;;10.10;99.90;;;;;;4855256;29;20452;-92
2023/04/24 05:48:15;;;;;;;11.82;10.20;;;10.00;99.90;;;;;;4854915;29;20421;-93
2023/04/24 05:50:41;;;;;;;13.82;11.93;;;10.10;99.90;;;;;;4856424;29;20467;-92
2023/04/24 05:53:07;;;;;;;13.15;11.18;;;10.20;99.90;;;;;;4853480;29;20939;-91
2023/04/24 05:55:33;;;;;;;15.93;12.70;;;10.20;99.90;;;;;;4838403;29;20512;-91
2023/04/24 05:57:59;;;;;;;15.02;12.18;;;10.30;99.90;;;;;;4836617;29;20430;-92
2023/04/24 06:00:25;;;;;;;12.30;8.93;;;10.20;99.90;;;;;;4838097;29;20516;-93
2023/04/24 06:02:52;;;;;;;9.93;8.15;;;10.10;99.90;;;;;;4835866;29;20426;-92
2023/04/24 06:05:18;;;;;;;10.23;7.90;;;10.10;99.90;;;;;;4837031;29;20532;-93
2023/04/24 06:07:45;;;;;;;8.02;6.82;;;10.00;99.90;;;;;;4837605;29;20505;-94
2023/04/24 06:10:11;;;;;;;6.85;5.95;;;10.20;99.90;;;;;;4836655;29;20586;-93
2023/04/24 06:12:37;;;;;;;6.13;5.22;;;10.00;99.90;;;;;;4822425;29;20512;-93
2023/04/24 06:15:03;;;;;;;6.30;5.20;;;10.00;99.90;;;;;;4821007;29;20455;-92
2023/04/24 06:17:30;;;;;;;4.72;3.00;;;9.90;99.90;;;;;;4823179;29;20621;-95
2023/04/24 06:19:56;;;;;;;7.57;3.10;;;10.00;99.90;;;;;;4821426;29;20430;-92
2023/04/24 06:22:21;;;;;;;4.83;2.13;;;9.70;99.90;;;;;;4822499;29;20788;-92
2023/04/24 06:24:48;;;;;;;4.65;1.75;;;9.90;99.90;;;;;;4822141;29;20513;-92
2023/04/24 06:27:14;;;;;;;4.10;1.53;;;9.80;99.90;;;;;;4821752;29;20456;-90
2023/04/24 06:29:39;;;;;;;4.47;1.77;;;10.00;99.90;;;;;;4822272;29;21069;-91
2023/04/24 06:32:05;;;;;;;3.95;1.85;;;9.60;99.90;;;;;;4821224;29;20450;-92
2023/04/24 06:34:32;;;;;;;4.57;1.90;;;9.70;99.90;;;;;;4822528;29;20913;-92
2023/04/24 06:36:58;;;;;;;3.38;1.73;;;9.90;99.90;;;;;;4820720;29;20437;-92
2023/04/24 06:39:23;;;;;;;5.03;2.13;;;9.70;99.90;;;;;;4823664;29;20923;-91
2023/04/24 06:41:49;;;;;;;3.33;2.13;;;9.90;99.90;;;;;;4833187;29;20838;-92
2023/04/24 06:44:15;;;;;;;3.45;1.98;;;9.90;99.90;;;;;;4840376;29;20504;-91
2023/04/24 06:46:41;;;;;;;4.00;2.13;;;9.80;99.90;;;;;;4840485;29;20941;-90
2023/04/24 06:49:07;;;;;;;5.60;2.60;;;9.80;99.90;;;;;;4839230;29;20914;-93
2023/04/24 06:51:32;;;;;;;5.65;2.45;;;9.70;99.90;;;;;;4840468;29;20416;-93
2023/04/24 06:53:58;;;;;;;5.23;1.70;;;9.80;99.90;;;;;;4839302;29;20417;-92
2023/04/24 06:56:25;;;;;;;5.97;1.95;;;9.90;99.90;;;;;;4840929;29;20455;-91
2023/04/24 06:58:51;;;;;;;4.43;1.50;;;9.70;99.90;;;;;;4854728;29;20455;-90
2023/04/24 07:01:17;;;;;;;5.10;1.70;;;9.80;99.90;;;;;;4839973;29;20421;-92
2023/04/24 07:03:43;;;;;;;5.00;1.50;;;9.90;99.90;;;;;;4839934;29;20420;-90
2023/04/24 07:06:12;;;;;;;5.85;2.58;;;9.70;99.90;;;;;;4840011;29;20489;-89
2023/04/24 07:08:38;;;;;;;5.45;2.53;;;9.90;99.90;;;;;;4840096;29;20443;-89
2023/04/24 07:11:04;;;;;;;7.47;3.38;;;9.70;99.90;;;;;;4838889;29;20453;-92
2023/04/24 07:13:29;;;;;;;6.35;3.53;;;9.70;99.90;;;;;;4842118;29;20728;-90
2023/04/24 07:15:56;;;;;;;12.10;7.63;;;9.70;99.90;;;;;;4842389;29;20409;-90
2023/04/24 07:18:22;;;;;;;14.25;9.73;;;9.70;99.90;;;;;;4843822;29;20921;-91
2023/04/24 07:20:49;;;;;;;17.40;12.10;;;9.70;99.90;;;;;;4843147;29;20760;-90
2023/04/24 07:23:15;;;;;;;16.58;12.20;;;9.70;99.90;;;;;;4858512;29;20942;-91
2023/04/24 07:25:42;;;;;;;17.17;13.07;;;9.80;99.90;;;;;;4843504;29;20526;-92
2023/04/24 07:28:08;;;;;;;20.25;14.27;;;9.50;99.90;;;;;;4842875;29;20839;-90
2023/04/24 07:30:34;;;;;;;19.80;13.88;;;9.70;99.90;;;;;;4859192;29;20425;-91
2023/04/24 07:33:00;;;;;;;21.83;14.13;;;9.40;99.90;;;;;;4857522;29;20785;-91
2023/04/24 07:35:26;;;;;;;20.02;14.25;;;9.50;99.90;;;;;;4859150;29;20926;-91
2023/04/24 07:37:55;;;;;;;19.48;14.23;;;9.40;99.90;;;;;;4843120;29;20790;-91
2023/04/24 07:40:22;;;;;;;19.92;13.27;;;9.50;99.90;;;;;;4858975;29;20752;-91
2023/04/24 07:42:48;;;;;;;16.10;12.40;;;9.50;99.90;;;;;;4842865;29;20421;-88
2023/04/24 07:45:15;;;;;;;18.73;13.52;;;9.40;99.90;;;;;;4857289;29;20440;-92
2023/04/24 07:47:45;;;;;;;18.27;13.88;;;9.40;99.90;;;;;;4843417;29;20487;-92
2023/04/24 07:50:11;;;;;;;19.00;14.10;;;9.40;99.90;;;;;;4857143;29;20421;-90
2023/04/24 07:52:37;;;;;;;21.88;15.50;;;9.40;99.90;;;;;;4843932;29;20404;-90
2023/04/24 07:55:03;;;;;;;20.30;14.97;;;9.50;99.90;;;;;;4857428;29;20932;-93
2023/04/24 07:57:28;;;;;;;19.65;14.32;;;9.70;99.90;;;;;;4858568;29;20503;-92
2023/04/24 07:59:55;;;;;;;18.40;13.85;;;9.90;99.90;;;;;;4857505;29;20428;-90
2023/04/24 08:02:25;;;;;;;21.30;15.70;;;9.50;99.90;;;;;;4857638;29;20416;-91
2023/04/24 08:04:53;;;;;;;23.40;17.10;;;9.60;99.90;;;;;;4858333;29;20452;-91
2023/04/24 08:07:19;;;;;;;25.42;16.98;;;9.50;99.90;;;;;;4841742;29;20859;-90
2023/04/24 08:09:45;;;;;;;19.90;16.17;;;9.50;99.90;;;;;;4842665;29;20502;-90
2023/04/24 08:12:11;;;;;;;20.08;15.82;;;9.40;99.90;;;;;;4841765;29;20519;-92
2023/04/24 08:14:36;;;;;;;18.87;15.00;;;9.40;99.90;;;;;;4858322;29;20437;-89
2023/04/24 08:17:03;;;;;;;19.00;15.53;;;9.40;99.90;;;;;;4857304;29;20440;-91
2023/04/24 08:19:29;;;;;;;20.48;15.48;;;9.40;99.90;;;;;;4857668;29;20427;-93
2023/04/24 08:21:54;;;;;;;15.45;13.38;;;9.40;99.90;;;;;;4842255;29;20930;-90
2023/04/24 08:24:21;;;;;;;19.00;14.37;;;9.70;99.90;;;;;;4856200;29;20436;-91
2023/04/24 08:26:50;;;;;;;16.73;13.75;;;9.40;99.90;;;;;;4843018;29;20429;-92
2023/04/24 08:29:16;;;;;;;16.10;12.20;;;9.70;99.90;;;;;;4856149;29;20413;-92
2023/04/24 08:31:41;;;;;;;13.53;10.47;;;9.70;99.90;;;;;;4842591;29;20467;-94
2023/04/24 08:34:07;;;;;;;15.90;11.27;;;9.60;99.90;;;;;;4856251;29;20809;-90
2023/04/24 08:36:33;;;;;;;13.40;9.47;;;9.60;99.90;;;;;;4857831;29;20497;-93
2023/04/24 08:38:59;;;;;;;11.95;9.30;;;9.80;99.90;;;;;;4842406;29;20542;-91
2023/04/24 08:41:26;;;;;;;15.35;9.95;;;9.80;99.90;;;;;;4841366;29;20763;-92
2023/04/24 08:43:52;;;;;;;11.83;7.83;;;10.00;99.90;;;;;;4857530;29;20466;-90
2023/04/24 08:46:19;;;;;;;11.37;7.57;;;9.90;99.90;;;;;;4833007;29;20441;-90
2023/04/24 08:48:45;;;;;;;11.60;8.13;;;10.10;99.90;;;;;;4831093;29;20513;-92
2023/04/24 08:51:11;;;;;;;12.77;9.40;;;10.50;99.90;;;;;;4832701;29;20456;-91
2023/04/24 08:53:38;;;;;;;10.73;7.50;;;10.20;99.90;;;;;;4831466;29;20789;-92
2023/04/24 08:56:04;;;;;;;11.00;7.95;;;10.20;99.90;;;;;;4832810;29;20456;-90
2023/04/24 08:58:31;;;;;;;11.38;7.65;;;10.20;99.90;;;;;;4829802;29;21078;-90
2023/04/24 09:00:58;;;;;;;11.35;7.60;;;10.10;99.90;;;;;;4832162;29;20429;-89
2023/04/24 09:03:26;;;;;;;11.43;8.10;;;10.00;99.90;;;;;;4832274;29;20478;-92
2023/04/24 09:05:55;;;;;;;9.77;6.65;;;10.20;99.90;;;;;;4839036;29;20513;-91
2023/04/24 09:08:25;;;;;;;11.25;6.22;;;9.90;99.90;;;;;;4822954;29;20780;-91
2023/04/24 09:10:50;;;;;;;12.25;6.22;;;10.00;99.90;;;;;;4824623;29;20473;-90
2023/04/24 09:13:17;;;;;;;12.88;6.10;;;9.90;99.90;;;;;;4854218;29;20462;-90
2023/04/24 09:15:43;;;;;;;11.20;6.38;;;10.10;99.90;;;;;;4823797;29;21003;-88
2023/04/24 09:18:09;;;;;;;10.48;5.07;;;10.00;99.90;;;;;;4839275;29;20605;-91
2023/04/24 09:20:36;;;;;;;8.18;4.05;;;10.10;99.90;;;;;;4856183;29;20456;-91
2023/04/24 09:23:01;;;;;;;9.73;4.07;;;10.10;99.90;;;;;;4860817;29;20423;-89
2023/04/24 09:25:37;;;;;;;6.47;3.03;;;10.20;99.90;;;;;;4859286;29;20445;-91
2023/04/24 09:28:05;;;;;;;9.73;3.40;;;10.20;99.90;;;;;;4876905;29;20419;-91
2023/04/24 09:30:31;;;;;;;5.88;2.60;;;10.40;99.90;;;;;;4874834;29;20470;-90
2023/04/24 09:33:26;;;;;;;6.07;2.93;;;10.50;99.90;;;;;;4860338;29;20435;-92
2023/04/24 09:35:52;;;;;;;7.00;2.20;;;10.70;99.90;;;;;;4864123;29;20419;-91
2023/04/24 09:38:18;;;;;;;8.73;2.50;;;10.80;99.90;;;;;;4859293;29;20422;-91
2023/04/24 09:40:44;;;;;;;8.60;2.27;;;10.90;99.90;;;;;;4876633;29;20507;-92
2023/04/24 09:43:12;;;;;;;9.90;3.00;;;10.90;99.90;;;;;;4859165;29;20456;-93
2023/04/24 09:45:39;;;;;;;9.77;3.00;;;10.90;99.90;;;;;;4860707;29;20482;-91
2023/04/24 09:48:08;;;;;;;10.98;3.47;;;11.00;99.90;;;;;;4859673;29;20407;-92
2023/04/24 09:50:34;;;;;;;10.23;3.28;;;11.00;99.90;;;;;;4875637;29;20867;-93
2023/04/24 09:53:05;;;;;;;10.88;3.03;;;11.00;99.90;;;;;;4860434;29;20458;-93
2023/04/24 09:55:31;;;;;;;8.15;2.67;;;11.00;99.90;;;;;;4874271;29;20479;-90
2023/04/24 09:58:01;;;;;;;9.15;2.33;;;11.10;99.90;;;;;;4860594;29;20410;-89
2023/04/24 10:00:28;;;;;;;9.20;2.30;;;11.40;99.90;;;;;;4858768;29;20486;-90
2023/04/24 10:02:59;;;;;;;8.20;1.52;;;11.50;99.90;;;;;;4873502;29;20810;-92
2023/04/24 10:05:34;;;;;;;7.82;2.33;;;11.40;99.90;;;;;;4840285;29;20477;-92
2023/04/24 10:08:08;;;;;;;7.10;2.00;;;11.40;99.90;;;;;;4840611;29;20461;-89
2023/04/24 10:10:38;;;;;;;8.27;1.65;;;11.40;99.90;;;;;;4856593;29;20530;-89
2023/04/24 10:13:04;;;;;;;5.93;1.58;;;11.30;99.90;;;;;;4855379;29;20423;-91
2023/04/24 10:15:30;;;;;;;7.07;1.67;;;11.20;99.90;;;;;;4854279;29;20444;-90
2023/04/24 10:17:58;;;;;;;6.57;1.70;;;11.20;99.90;;;;;;4854815;29;20428;-91
2023/04/24 10:20:26;;;;;;;8.00;1.65;;;11.20;99.90;;;;;;4856986;29;20429;-92
2023/04/24 10:22:54;;;;;;;8.48;1.73;;;11.20;99.90;;;;;;4855974;29;20413;-89
2023/04/24 10:25:21;;;;;;;6.93;1.50;;;11.10;99.90;;;;;;4855825;29;20480;-91
2023/04/24 10:27:48;;;;;;;7.63;1.48;;;11.00;99.90;;;;;;4856178;29;20496;-90
2023/04/24 10:30:15;;;;;;;7.72;1.65;;;10.90;99.90;;;;;;4855582;29;20429;-89
2023/04/24 10:32:40;;;;;;;7.63;1.10;;;10.80;99.90;;;;;;4872744;29;20457;-91
2023/04/24 10:35:08;;;;;;;6.65;1.05;;;10.70;99.90;;;;;;4858536;29;20480;-91
2023/04/24 10:37:43;;;;;;;8.50;1.50;;;10.70;99.90;;;;;;4860227;29;20422;-92
2023/04/24 10:40:10;;;;;;;6.70;1.40;;;10.70;99.90;;;;;;4859648;29;20517;-90
2023/04/24 10:42:41;;;;;;;6.87;1.37;;;10.70;99.90;;;;;;4859281;29;20523;-91
2023/04/24 10:45:15;;;;;;;6.30;1.03;;;10.60;99.90;;;;;;4859743;29;20438;-89
2023/04/24 10:47:42;;;;;;;8.60;1.20;;;10.50;99.90;;;;;;4858855;29;20462;-91
2023/04/24 10:50:10;;;;;;;4.82;1.33;;;10.50;99.90;;;;;;4864090;29;20409;-92
2023/04/24 10:52:54;;;;;;;6.90;0.93;;;10.50;99.90;;;;;;4862094;29;20530;-90
2023/04/24 10:55:39;;;;;;;6.35;1.00;;;10.50;99.90;;;;;;4863248;29;20775;-91
2023/04/24 10:58:05;;;;;;;8.30;1.25;;;10.50;99.90;;;;;;4863214;29;20502;-92
2023/04/24 11:00:30;;;;;;;6.80;1.30;;;10.70;99.90;;;;;;4862223;29;20493;-89
2023/04/24 11:02:57;;;;;;;8.43;1.20;;;10.50;99.90;;;;;;4864193;29;20451;-88
2023/04/24 11:05:49;;;;;;;7.32;1.15;;;10.60;99.90;;;;;;4861790;29;20443;-92
2023/04/24 11:08:21;;;;;;;7.13;1.35;;;10.70;99.90;;;;;;4863405;29;20423;-90
2023/04/24 11:10:54;;;;;;;5.87;0.80;;;10.80;99.90;;;;;;4862769;29;20463;-90
2023/04/24 11:13:28;;;;;;;8.88;1.52;;;10.80;99.90;;;;;;4862285;29;20419;-92
2023/04/24 11:16:25;;;;;;;6.03;1.00;;;10.80;99.90;;;;;;4863536;29;20514;-91
2023/04/24 11:19:00;;;;;;;9.82;1.08;;;10.70;99.90;;;;;;4862273;29;20427;-90
2023/04/24 11:21:31;;;;;;;5.45;0.60;;;10.60;99.90;;;;;;4862340;29;20490;-91
2023/04/24 11:23:57;;;;;;;4.70;0.60;;;10.40;99.90;;;;;;4862869;29;20478;-92
2023/04/24 11:26:32;;;;;;;5.15;0.63;;;10.40;99.90;;;;;;4861768;29;21093;-91
2023/04/24 11:29:07;;;;;;;3.60;0.40;;;10.00;99.90;;;;;;4863110;29;20415;-90
2023/04/24 11:31:49;;;;;;;4.57;0.90;;;10.00;99.90;;;;;;4861542;29;20502;-92
2023/04/24 11:34:16;;;;;;;3.63;0.70;;;9.80;99.90;;;;;;4862895;29;20422;-90
2023/04/24 11:36:48;;;;;;;5.45;0.52;;;9.70;99.90;;;;;;4862345;29;21012;-90
2023/04/24 11:39:15;;;;;;;3.28;0.70;;;9.70;99.90;;;;;;4861433;29;20423;-91
2023/04/24 11:41:40;;;;;;;4.85;0.70;;;9.70;99.90;;;;;;4862767;29;20423;-92
2023/04/24 11:44:08;;;;;;;4.40;0.80;;;9.80;99.90;;;;;;4861361;29;20407;-92
2023/04/24 11:46:34;;;;;;;3.55;0.40;;;10.00;99.90;;;;;;4862836;29;20451;-90
2023/04/24 11:49:00;;;;;;;5.38;0.50;;;10.20;99.90;;;;;;4857714;29;20424;-90
2023/04/24 11:51:27;;;;;;;3.97;0.55;;;10.60;99.90;;;;;;4844044;29;20433;-92
2023/04/24 11:53:54;;;;;;;5.15;0.50;;;10.70;99.90;;;;;;4843672;29;20420;-91
2023/04/24 11:56:24;;;;;;;3.78;0.40;;;10.70;99.90;;;;;;4842990;29;20423;-90
2023/04/24 11:58:53;;;;;;;4.53;0.45;;;11.30;99.90;;;;;;4843215;29;20440;-90
2023/04/24 12:01:19;;;;;;;3.53;0.30;;;11.40;99.90;;;;;;4842209;29;20420;-90
2023/04/24 12:03:50;;;;;;;4.73;0.57;;;11.40;99.90;;;;;;4844021;29;20427;-90
2023/04/24 12:06:16;;;;;;;4.20;0.52;;;11.40;99.90;;;;;;4842695;29;20508;-90
2023/04/24 12:08:45;;;;;;;2.97;0.40;;;11.40;99.90;;;;;;4843773;29;20456;-91
2023/04/24 12:11:11;;;;;;;3.10;0.55;;;11.30;99.90;;;;;;4842980;29;20452;-91
2023/04/24 12:13:37;;;;;;;3.60;0.50;;;11.20;99.90;;;;;;4842931;29;20827;-93
2023/04/24 12:16:04;;;;;;;4.70;0.60;;;11.10;99.90;;;;;;4843892;29;20520;-91
2023/04/24 12:18:30;;;;;;;6.03;0.90;;;11.10;99.90;;;;;;4842392;29;20423;-91
2023/04/24 12:21:15;;;;;;;7.65;1.00;;;11.00;99.90;;;;;;4843765;29;20429;-91
2023/04/24 12:23:43;;;;;;;5.45;0.40;;;11.20;99.90;;;;;;4842324;29;20504;-90
2023/04/24 12:26:09;;;;;;;7.55;0.90;;;11.50;99.90;;;;;;4843081;29;20997;-92
2023/04/24 12:28:36;;;;;;;4.95;0.55;;;11.50;99.90;;;;;;4843567;29;20424;-90
2023/04/24 12:31:02;;;;;;;5.35;0.57;;;11.50;99.90;;;;;;4842605;29;20423;-90
2023/04/24 12:33:32;;;;;;;6.97;0.60;;;11.40;99.90;;;;;;4843335;29;20500;-91
2023/04/24 12:35:57;;;;;;;4.45;0.35;;;11.20;99.90;;;;;;4841881;29;20417;-92
2023/04/24 12:38:25;;;;;;;3.22;0.30;;;11.10;99.90;;;;;;4844200;29;20472;-92
2023/04/24 12:41:06;;;;;;;3.97;0.30;;;11.10;99.90;;;;;;4841980;29;20417;-90
2023/04/24 12:43:32;;;;;;;3.55;0.25;;;11.20;99.90;;;;;;4843129;29;20437;-92